Flight Track Log - Related Links

Times and Time Zones

All times are in EDT time to prevent confusion due to time zone crossing. See the COM2957 flight status page for this flight to view local times or setup timezone preferences in your user account.

Time Position Orientation Groundspeed Altitude Reporting Facility
EDT Latitude Longitude Course Direction KTS MPH feet Rate Location/Type
Fri 10:04:42 AM 41.8000 -87.7667 66° East 176 203 1,800  Level Chicago TRACON
Fri 10:05:36 AM 41.8167 -87.7167 90° East 223 257 3,000 2,105 Climbing Chicago TRACON
Fri 10:06:36 AM 41.8167 -87.6333 105° East 240 276 5,800 2,474 Climbing Chicago TRACON
Fri 10:07:30 AM 41.8000 -87.5500 97° East 279 321 7,700 2,021 Climbing Chicago TRACON
Fri 10:09:43 AM 41.7775 -87.2950 94° East 311 358 12,100 1,959 Climbing Chicago Center
Fri 10:10:43 AM 41.7711 -87.1728 81° East 321 369 14,000 2,050 Climbing Chicago Center
Fri 10:11:43 AM 41.7856 -87.0497 81° East 321 369 16,200 1,950 Climbing Chicago Center
Fri 10:12:43 AM 41.7997 -86.9350 80° East 321 369 17,900 1,450 Climbing Chicago Center
Fri 10:13:43 AM 41.8158 -86.8117 80° East 321 369 19,100 1,200 Climbing Chicago Center
Fri 10:14:43 AM 41.8319 -86.6939 79° East 342 394 20,300 950 Climbing Chicago Center
Fri 10:15:43 AM 41.8497 -86.5650 81° East 347 399 21,000 350 Climbing Chicago Center
Fri 10:16:43 AM 41.8650 -86.4306 80° East 357 411 21,000  Level Chicago Center
Fri 10:17:43 AM 41.8825 -86.2986 80° East 357 411 21,000  Level Chicago Center
Fri 10:18:43 AM 41.8997 -86.1611 81° East 363 418 21,000  Level Chicago Center
Fri 10:19:43 AM 41.9147 -86.0292 80° East 358 412 21,000 -446 Level Chicago Center
Fri 10:20:44 AM 41.9317 -85.8969 80° East 358 412 20,100 -1,000 Descending Chicago Center
Fri 10:21:43 AM 41.9483 -85.7650 81° East 353 406 19,000 -550 Descending Chicago Center
Fri 10:22:44 AM 41.9633 -85.6411 81° East 353 406 19,000  Level Chicago Center
Fri 10:25:03 AM 41.9983 -85.3506 81° East 332 382 19,000  Level Cleveland Center
Fri 10:26:03 AM 42.0119 -85.2286 82° East 332 382 19,000  Level Cleveland Center
Fri 10:27:03 AM 42.0250 -85.1064 81° East 327 376 19,000  Level Cleveland Center
Fri 10:28:03 AM 42.0406 -84.9733 83° East 327 376 19,000 -450 Level Cleveland Center
Fri 10:29:03 AM 42.0517 -84.8453 93° East 334 384 18,100 -1,300 Descending Cleveland Center
Fri 10:30:03 AM 42.0478 -84.7275 128° Southeast 329 379 16,400 -1,950 Descending Cleveland Center
Fri 10:31:03 AM 41.9847 -84.6200 126° Southeast 324 373 14,200 -2,100 Descending Cleveland Center
Fri 10:32:03 AM 41.9281 -84.5133 127° Southeast 355 409 12,200 -1,158 Descending Cleveland Center
Fri 10:32:57 AM 41.8789 -84.4264 126° Southeast 329 379 12,000 -141 Descending Cleveland Center
Fri 10:33:28 AM 41.8553 -84.3833 125° Southeast 322 371 12,000  Level Cleveland Center
Fri 10:34:03 AM 41.8219 -84.3200 125° Southeast 325 374 12,000  Level Cleveland Center
Fri 10:35:15 AM 41.7786 -84.2367 79° East 319 367 12,000  Level Cleveland Center
Fri 10:36:15 AM 41.7950 -84.1178 59° Northeast 266 306 12,000  Level Cleveland Center
Fri 10:37:15 AM 41.8375 -84.0225 49° Northeast 270 311 12,000  Level Cleveland Center
Fri 10:38:15 AM 41.8919 -83.9389 45° Northeast 288 331 12,000  Level Cleveland Center
Fri 10:39:15 AM 41.9508 -83.8583 46° Northeast 296 341 12,000  Level Cleveland Center
Fri 10:40:36 AM 42.0222 -83.7586 53° Northeast 251 289 12,000  Level Cleveland Center
Fri 10:41:15 AM 42.0464 -83.7150 47° Northeast 250 288 12,000  Level Cleveland Center
Fri 10:42:15 AM 42.0897 -83.6528 47° Northeast 230 265 12,000  Level Cleveland Center
Fri 10:42:59 AM 42.1264 -83.6006 48° Northeast 231 266 12,000  Level FAA TRACON SMA TRACON (SMA)
Fri 10:43:39 AM 42.1558 -83.5561 35° Northeast 230 265 12,000  Level FAA TRACON SMA TRACON (SMA)
Fri 10:44:19 AM 42.1875 -83.5267 27° Northeast 223 257 12,000 -815 Level FAA TRACON SMA TRACON (SMA)
Fri 10:45:00 AM 42.2267 -83.5000 27° Northeast 227 261 10,900 -1,800 Descending FAA TRACON SMA TRACON (SMA)
Fri 10:45:39 AM 42.2667 -83.4725 28° Northeast 231 266 9,600 -1,671 Descending FAA TRACON SMA TRACON (SMA)
Fri 10:46:19 AM 42.3019 -83.4475 26° Northeast 221 254 8,700 -1,500 Descending FAA TRACON SMA TRACON (SMA)
Fri 10:46:59 AM 42.3383 -83.4233 27° Northeast 209 241 7,600 -1,926 Descending FAA TRACON SMA TRACON (SMA)
Fri 10:47:40 AM 42.3733 -83.3989 29° Northeast 213 245 6,100 -1,926 Descending FAA TRACON SMA TRACON (SMA)
Fri 10:48:20 AM 42.4075 -83.3731 92° East 216 249 5,000 -1,595 Descending FAA TRACON SMA TRACON (SMA)
Fri 10:48:59 AM 42.4061 -83.3183 152° Southeast 233 268 4,000 -1,063 Descending FAA TRACON SMA TRACON (SMA)
Fri 10:49:39 AM 42.3758 -83.2961 180° South 190 219 3,600 -750 Descending FAA TRACON SMA TRACON (SMA)
Fri 10:50:19 AM 42.3422 -83.2958 190° South 179 206 3,000 -593 Descending FAA TRACON SMA TRACON (SMA)
Fri 10:51:00 AM 42.3108 -83.3033 210° Southwest 172 198 2,800 -593 Descending FAA TRACON SMA TRACON (SMA)
Fri 10:51:40 AM 42.2856 -83.3228 209° Southwest 150 173 2,200 -911 Descending FAA TRACON SMA TRACON (SMA)
Fri 10:52:19 AM 42.2614 -83.3406 209° Southwest 146 168 1,600 -923 Descending FAA TRACON SMA TRACON (SMA)

Login

Don't have an account? Register now (free) for customized features, flight alerts, and more!